createdAt,value
2022-10-01T00:00:43.863Z,81.91
2022-10-01T00:05:21.732Z,82.27
2022-10-01T00:07:52.544Z,82.56
2022-10-01T00:10:22.983Z,82.25
2022-10-01T00:12:54.631Z,82.30
2022-10-01T00:15:25.683Z,82.30
2022-10-01T00:17:56.780Z,82.63
2022-10-01T00:20:27.046Z,82.61
2022-10-01T00:22:57.194Z,82.62
2022-10-01T00:25:28.367Z,82.47
2022-10-01T00:27:58.991Z,82.68
2022-10-01T00:30:29.258Z,82.74
2022-10-01T00:33:00.064Z,83.22
2022-10-01T00:35:30.816Z,83.42
2022-10-01T00:38:01.127Z,83.57
2022-10-01T00:40:31.926Z,83.68
2022-10-01T00:43:02.771Z,83.56
2022-10-01T00:45:33.123Z,83.54
2022-10-01T00:48:04.006Z,83.96
2022-10-01T00:50:40.296Z,83.47
2022-10-01T00:53:15.747Z,83.94
2022-10-01T00:55:56.076Z,83.88
2022-10-01T00:58:27.973Z,83.87
2022-10-01T01:01:00.108Z,83.96
2022-10-01T01:03:30.658Z,84.11
2022-10-01T01:06:01.456Z,84.09
2022-10-01T01:08:32.346Z,84.14
2022-10-01T01:11:33.258Z,83.99
2022-10-01T01:14:55.042Z,83.95
2022-10-01T01:17:37.169Z,84.02
2022-10-01T01:20:25.938Z,83.78
2022-10-01T01:23:29.316Z,83.95
2022-10-01T01:26:19.401Z,84.02
2022-10-01T01:28:59.340Z,83.95
2022-10-01T01:31:37.138Z,84.34
2022-10-01T01:34:15.536Z,84.17
2022-10-01T01:36:52.329Z,84.07
2022-10-01T01:39:26.066Z,84.35
2022-10-01T01:42:02.372Z,84.31
2022-10-01T01:44:39.456Z,84.15
2022-10-01T01:47:12.794Z,83.62
2022-10-01T01:49:44.656Z,83.64
2022-10-01T01:52:18.643Z,84.02
2022-10-01T01:54:51.808Z,83.78
2022-10-01T01:57:23.923Z,83.70
2022-10-01T01:59:56.895Z,83.72
2022-10-01T02:02:32.284Z,83.63
2022-10-01T02:05:07.258Z,83.93
2022-10-01T02:08:04.507Z,83.89
2022-10-01T02:10:37.253Z,83.69
2022-10-01T02:13:22.428Z,83.50
2022-10-01T02:16:07.258Z,83.45
2022-10-01T02:18:58.706Z,83.30
2022-10-01T02:21:42.859Z,83.13
2022-10-01T02:24:40.306Z,83.18
2022-10-01T02:27:21.730Z,82.78
2022-10-01T02:29:53.212Z,82.87
2022-10-01T02:32:24.482Z,83.06
2022-10-01T02:34:57.153Z,83.32
2022-10-01T02:37:28.940Z,83.26
2022-10-01T02:40:01.806Z,83.31
2022-10-01T02:42:33.514Z,83.32
2022-10-01T02:45:06.220Z,82.77
2022-10-01T02:47:46.621Z,82.78
2022-10-01T02:50:18.002Z,83.13
2022-10-01T02:53:07.635Z,83.02
2022-10-01T02:55:44.576Z,82.89
2022-10-01T02:58:14.831Z,83.14
2022-10-01T03:00:45.408Z,83.45
2022-10-01T03:03:16.331Z,82.79
2022-10-01T03:05:46.502Z,82.68
2022-10-01T03:08:17.187Z,83.00
2022-10-01T03:10:47.658Z,83.15
2022-10-01T03:13:18.778Z,82.72
2022-10-01T03:15:49.556Z,82.73
2022-10-01T03:18:20.354Z,82.59
2022-10-01T03:20:50.789Z,82.30
2022-10-01T03:23:21.693Z,82.50
2022-10-01T03:25:52.470Z,82.30
2022-10-01T03:28:23.523Z,82.17
2022-10-01T03:30:54.622Z,81.82
2022-10-01T03:33:24.990Z,82.12
2022-10-01T03:35:55.833Z,81.93
2022-10-01T03:38:25.975Z,81.87
2022-10-01T03:40:57.459Z,81.56
2022-10-01T03:43:31.900Z,81.36
2022-10-01T03:46:03.595Z,81.65
2022-10-01T03:48:34.350Z,81.19
2022-10-01T03:51:05.259Z,81.05
2022-10-01T03:53:36.203Z,81.15
2022-10-01T03:56:07.919Z,80.75
2022-10-01T03:58:38.775Z,80.44
2022-10-01T04:01:09.584Z,80.43
2022-10-01T04:03:40.541Z,80.75
2022-10-01T04:06:10.676Z,80.53
2022-10-01T04:08:41.010Z,80.68
2022-10-01T04:11:12.242Z,80.13
2022-10-01T04:13:42.105Z,80.35
2022-10-01T04:16:12.965Z,80.07
2022-10-01T04:18:44.136Z,79.47
2022-10-01T04:21:15.878Z,79.47
2022-10-01T04:23:46.667Z,79.23
2022-10-01T04:26:16.959Z,79.20
2022-10-01T04:28:48.581Z,79.25
2022-10-01T04:31:28.723Z,78.65
2022-10-01T04:34:00.107Z,79.17
2022-10-01T04:36:29.810Z,79.04
2022-10-01T04:39:02.447Z,78.90
2022-10-01T04:41:35.094Z,79.29
2022-10-01T04:44:05.678Z,79.35
2022-10-01T04:46:36.455Z,79.72
2022-10-01T04:49:06.693Z,79.29
2022-10-01T04:51:37.059Z,79.22
2022-10-01T04:54:07.892Z,78.28
2022-10-01T04:56:38.670Z,78.52
2022-10-01T04:59:08.921Z,78.03
2022-10-01T05:01:39.285Z,78.09
2022-10-01T05:04:09.646Z,78.02
2022-10-01T05:06:40.019Z,77.77
2022-10-01T05:09:11.225Z,77.58
2022-10-01T05:11:42.419Z,77.68
2022-10-01T05:14:14.093Z,77.61
2022-10-01T05:16:44.907Z,77.55
2022-10-01T05:19:16.265Z,77.44
2022-10-01T05:21:47.107Z,77.39
2022-10-01T05:24:18.232Z,77.34
2022-10-01T05:26:48.360Z,76.89
2022-10-01T05:29:21.351Z,76.88
2022-10-01T05:31:52.479Z,76.91
2022-10-01T05:34:22.753Z,77.07
2022-10-01T05:36:53.301Z,77.26
2022-10-01T05:39:24.205Z,77.28
2022-10-01T05:41:59.770Z,77.31
2022-10-01T05:44:39.898Z,76.77
2022-10-01T05:47:10.745Z,76.88
2022-10-01T05:49:44.701Z,77.21
2022-10-01T05:52:16.701Z,77.11
2022-10-01T05:54:47.501Z,77.01
2022-10-01T05:57:18.186Z,76.79
2022-10-01T05:59:48.443Z,77.06
2022-10-01T06:02:18.712Z,76.58
2022-10-01T06:04:49.590Z,76.72
2022-10-01T06:07:19.916Z,76.63
2022-10-01T06:09:50.060Z,76.71
2022-10-01T06:12:21.060Z,76.59
2022-10-01T06:14:51.823Z,76.51
2022-10-01T06:17:22.043Z,76.42
2022-10-01T06:19:53.617Z,76.94
2022-10-01T06:22:24.014Z,76.97
2022-10-01T06:24:56.709Z,76.70
2022-10-01T06:27:27.582Z,76.52
2022-10-01T06:29:57.884Z,76.33
2022-10-01T06:32:31.595Z,76.46
2022-10-01T06:35:04.633Z,76.45
2022-10-01T06:37:35.220Z,76.59
2022-10-01T06:40:05.696Z,76.60
2022-10-01T06:42:36.426Z,76.52
2022-10-01T06:45:07.612Z,76.38
2022-10-01T06:47:37.884Z,76.24
2022-10-01T06:50:08.751Z,76.53
2022-10-01T06:52:59.131Z,76.26
2022-10-01T06:55:33.221Z,76.46
2022-10-01T06:58:10.372Z,76.12
2022-10-01T07:00:41.117Z,76.40
2022-10-01T07:03:16.468Z,76.43
2022-10-01T07:05:47.710Z,76.33
2022-10-01T07:08:19.142Z,76.35
2022-10-01T07:10:49.105Z,76.28
2022-10-01T07:13:22.859Z,76.32
2022-10-01T07:15:53.016Z,75.95
2022-10-01T07:18:23.929Z,76.09
2022-10-01T07:20:54.414Z,75.86
2022-10-01T07:23:27.194Z,76.29
2022-10-01T07:25:58.066Z,76.09
2022-10-01T07:28:59.121Z,76.00
2022-10-01T07:31:29.855Z,75.49
2022-10-01T07:34:01.239Z,75.60
2022-10-01T07:36:31.627Z,76.02
2022-10-01T07:39:04.388Z,75.43
2022-10-01T07:41:35.810Z,75.74
2022-10-01T07:44:06.895Z,75.58
2022-10-01T07:46:38.371Z,75.71
2022-10-01T07:49:09.069Z,75.79
2022-10-01T07:51:40.057Z,75.98
2022-10-01T07:54:10.828Z,76.08
2022-10-01T07:56:41.902Z,76.04
2022-10-01T07:59:13.416Z,75.56
2022-10-01T08:01:44.377Z,75.22
2022-10-01T08:04:33.580Z,75.32
2022-10-01T08:07:04.001Z,75.29
2022-10-01T08:09:34.852Z,74.92
2022-10-01T08:12:05.308Z,75.20
2022-10-01T08:14:36.018Z,74.78
2022-10-01T08:17:06.549Z,74.99
2022-10-01T08:19:38.444Z,75.15
2022-10-01T08:22:09.446Z,74.52
2022-10-01T08:24:40.233Z,74.69
2022-10-01T08:27:11.218Z,75.24
2022-10-01T08:29:44.232Z,75.16
2022-10-01T08:32:14.457Z,75.67
2022-10-01T08:34:44.713Z,75.40
2022-10-01T08:37:15.606Z,75.53
2022-10-01T08:39:46.085Z,75.45
2022-10-01T08:42:35.960Z,75.61
2022-10-01T08:45:35.116Z,75.62
2022-10-01T08:48:13.127Z,75.46
2022-10-01T08:51:07.003Z,75.26
2022-10-01T08:53:50.375Z,75.61
2022-10-01T08:56:33.803Z,75.37
2022-10-01T08:59:13.273Z,75.25
2022-10-01T09:01:44.043Z,74.94
2022-10-01T09:04:14.452Z,75.37
2022-10-01T09:06:49.840Z,75.35
2022-10-01T09:09:44.389Z,75.07
2022-10-01T09:12:26.522Z,75.22
2022-10-01T09:15:05.158Z,75.19
2022-10-01T09:18:12.399Z,75.32
2022-10-01T09:20:47.751Z,75.14
2022-10-01T09:23:32.128Z,75.38
2022-10-01T09:26:02.788Z,75.10
2022-10-01T09:28:36.447Z,75.09
2022-10-01T09:31:32.662Z,75.15
2022-10-01T09:34:13.935Z,74.88
2022-10-01T09:36:58.903Z,75.03
2022-10-01T09:39:59.875Z,74.66
2022-10-01T09:42:33.320Z,74.74
2022-10-01T09:45:03.629Z,74.80
2022-10-01T09:47:36.413Z,74.56
2022-10-01T09:50:09.149Z,74.33
2022-10-01T09:52:42.619Z,74.34
2022-10-01T09:55:24.999Z,74.54
2022-10-01T09:58:00.803Z,74.50
2022-10-01T10:00:31.185Z,74.77
2022-10-01T10:03:01.675Z,74.72
2022-10-01T10:05:51.716Z,74.72
2022-10-01T10:08:43.114Z,74.52
2022-10-01T10:11:13.653Z,74.46
2022-10-01T10:13:55.637Z,74.28
2022-10-01T10:16:28.732Z,74.47
2022-10-01T10:19:27.302Z,74.60
2022-10-01T10:22:03.320Z,74.74
2022-10-01T10:24:38.116Z,74.80
2022-10-01T10:27:23.112Z,74.54
2022-10-01T10:30:08.194Z,74.76
2022-10-01T10:32:38.852Z,74.58
2022-10-01T10:35:16.583Z,74.71
2022-10-01T10:37:55.896Z,74.36
2022-10-01T10:40:44.051Z,74.90
2022-10-01T10:43:24.738Z,74.79
2022-10-01T10:45:59.673Z,74.74
2022-10-01T10:48:46.640Z,74.46
2022-10-01T10:51:17.384Z,74.94
2022-10-01T10:53:49.340Z,74.68
2022-10-01T10:56:25.188Z,74.87
2022-10-01T10:58:56.219Z,74.99
2022-10-01T11:01:32.745Z,74.74
2022-10-01T11:04:04.851Z,75.06
2022-10-01T11:06:36.084Z,75.01
2022-10-01T11:09:13.046Z,74.85
2022-10-01T11:12:07.953Z,74.87
2022-10-01T11:14:59.863Z,74.69
2022-10-01T11:18:00.708Z,74.57
2022-10-01T11:20:52.814Z,74.38
2022-10-01T11:23:44.859Z,74.61
2022-10-01T11:26:40.341Z,74.24
2022-10-01T11:29:27.201Z,73.64
2022-10-01T11:32:20.066Z,73.68
2022-10-01T11:35:12.019Z,73.83
2022-10-01T11:38:02.015Z,73.57
2022-10-01T11:40:43.732Z,73.69
2022-10-01T11:43:33.809Z,74.02
2022-10-01T11:46:12.782Z,73.84
2022-10-01T11:49:06.113Z,74.29
2022-10-01T11:51:47.998Z,74.48
2022-10-01T11:54:26.209Z,74.61
2022-10-01T11:57:17.822Z,74.38
2022-10-01T11:59:56.246Z,74.90
2022-10-01T12:02:30.398Z,74.69
2022-10-01T12:05:13.165Z,74.68
2022-10-01T12:07:57.415Z,74.83
2022-10-01T12:10:41.023Z,74.79
2022-10-01T12:13:42.962Z,74.56
2022-10-01T12:16:18.576Z,74.96
2022-10-01T12:19:08.288Z,74.78
2022-10-01T12:21:48.469Z,75.01
2022-10-01T12:24:24.508Z,74.85
2022-10-01T12:27:07.942Z,75.42
2022-10-01T12:30:09.605Z,75.03
2022-10-01T12:32:39.438Z,75.06
2022-10-01T12:35:37.573Z,75.90
2022-10-01T12:38:17.190Z,76.25
2022-10-01T12:40:55.032Z,76.23
2022-10-01T12:43:43.516Z,77.02
2022-10-01T12:46:14.198Z,77.16
2022-10-01T12:48:44.400Z,77.26
2022-10-01T12:51:55.205Z,77.70
2022-10-01T12:55:07.502Z,77.82
2022-10-01T12:57:47.978Z,77.67
2022-10-01T13:00:21.295Z,78.43
2022-10-01T13:03:06.903Z,78.02
2022-10-01T13:06:02.873Z,78.18
2022-10-01T13:10:06.268Z,78.14
2022-10-01T13:12:59.727Z,78.50
2022-10-01T13:15:36.152Z,78.36
2022-10-01T13:18:21.655Z,78.13
2022-10-01T13:21:03.419Z,78.03
2022-10-01T13:23:38.796Z,77.88
2022-10-01T13:26:15.015Z,78.41
2022-10-01T13:29:09.090Z,78.28
2022-10-01T13:32:04.449Z,78.19
2022-10-01T13:34:40.294Z,77.78
2022-10-01T13:37:33.635Z,77.63
2022-10-01T13:40:05.384Z,77.52
2022-10-01T13:42:41.368Z,77.68
2022-10-01T13:45:26.013Z,78.56
2022-10-01T13:48:19.468Z,78.38
2022-10-01T13:51:16.863Z,79.02
2022-10-01T13:53:47.118Z,78.93
2022-10-01T13:56:38.639Z,78.97
2022-10-01T13:59:33.528Z,79.14
2022-10-01T14:02:05.654Z,78.98
2022-10-01T14:04:46.905Z,78.93
2022-10-01T14:07:19.722Z,79.31
2022-10-01T14:10:00.813Z,79.14
2022-10-01T14:12:54.129Z,79.05
2022-10-01T14:16:02.329Z,79.19
2022-10-01T14:18:45.709Z,79.09
2022-10-01T14:21:54.645Z,78.99
2022-10-01T14:24:30.649Z,78.88
2022-10-01T14:27:19.699Z,79.25
2022-10-01T14:29:55.515Z,79.69
2022-10-01T14:32:48.858Z,79.15
2022-10-01T14:35:26.416Z,79.24
2022-10-01T14:38:23.221Z,78.95
2022-10-01T14:40:54.383Z,78.83
2022-10-01T14:43:29.409Z,78.97
2022-10-01T14:46:06.947Z,78.99
2022-10-01T14:48:42.543Z,78.91
2022-10-01T14:51:33.851Z,79.16
2022-10-01T14:54:04.434Z,79.29
2022-10-01T14:56:37.190Z,79.35
2022-10-01T14:59:11.090Z,79.45
2022-10-01T15:01:44.049Z,79.04
2022-10-01T15:04:25.297Z,79.12
2022-10-01T15:06:58.313Z,79.45
2022-10-01T15:09:36.558Z,79.84
2022-10-01T15:12:09.388Z,80.14
2022-10-01T15:14:40.690Z,79.34
2022-10-01T15:17:15.546Z,79.49
2022-10-01T15:19:49.552Z,79.29
2022-10-01T15:22:20.307Z,79.08
2022-10-01T15:24:52.386Z,79.39
2022-10-01T15:27:24.666Z,79.43
2022-10-01T15:29:59.219Z,79.70
2022-10-01T15:32:31.029Z,79.27
2022-10-01T15:35:05.133Z,79.18
2022-10-01T15:37:40.139Z,79.20
2022-10-01T15:40:24.787Z,79.07
2022-10-01T15:43:10.332Z,79.31
2022-10-01T15:45:40.526Z,79.57
2022-10-01T15:48:31.733Z,79.42
2022-10-01T15:51:15.171Z,79.42
2022-10-01T15:53:46.006Z,79.68
2022-10-01T15:56:27.891Z,79.66
2022-10-01T15:59:06.929Z,79.68
2022-10-01T16:01:44.043Z,79.88
2022-10-01T16:04:16.611Z,79.77
2022-10-01T16:06:48.036Z,79.37
2022-10-01T16:09:22.940Z,79.44
2022-10-01T16:12:08.954Z,79.49
2022-10-01T16:14:57.903Z,79.30
2022-10-01T16:17:37.600Z,79.83
2022-10-01T16:20:17.348Z,80.10
2022-10-01T16:22:47.590Z,80.23
2022-10-01T16:25:27.012Z,80.40
2022-10-01T16:28:08.625Z,80.59
2022-10-01T16:30:39.673Z,80.58
2022-10-01T16:33:13.681Z,79.33
2022-10-01T16:35:47.288Z,78.79
2022-10-01T16:38:18.856Z,78.69
2022-10-01T16:40:52.775Z,78.04
2022-10-01T16:43:26.422Z,78.29
2022-10-01T16:45:56.882Z,77.99
2022-10-01T16:48:27.074Z,78.38
2022-10-01T16:51:01.560Z,79.08
2022-10-01T16:53:32.328Z,79.64
2022-10-01T16:56:02.552Z,79.82
2022-10-01T16:58:32.558Z,79.44
2022-10-01T17:01:09.393Z,79.75
2022-10-01T17:03:39.618Z,79.69
2022-10-01T17:06:09.872Z,79.72
2022-10-01T17:08:40.597Z,79.80
2022-10-01T17:11:14.052Z,79.54
2022-10-01T17:13:44.436Z,80.01
2022-10-01T17:16:14.687Z,79.95
2022-10-01T17:18:45.858Z,80.08
2022-10-01T17:21:17.160Z,79.78
2022-10-01T17:23:51.271Z,79.85
2022-10-01T17:26:23.725Z,79.76
2022-10-01T17:28:54.589Z,80.04
2022-10-01T17:31:24.975Z,79.93
2022-10-01T17:33:57.449Z,80.13
2022-10-01T17:36:28.797Z,80.14
2022-10-01T17:38:58.632Z,80.15
2022-10-01T17:41:29.396Z,80.43
2022-10-01T17:44:01.072Z,80.39
2022-10-01T17:46:33.713Z,80.33
2022-10-01T17:49:04.845Z,79.77
2022-10-01T17:51:35.605Z,79.96
2022-10-01T17:54:06.762Z,79.67
2022-10-01T17:56:37.061Z,79.29
2022-10-01T17:59:07.279Z,79.01
2022-10-01T18:01:38.154Z,78.97
2022-10-01T18:04:08.464Z,78.94
2022-10-01T18:06:39.188Z,78.76
2022-10-01T18:09:09.832Z,79.12
2022-10-01T18:11:41.187Z,79.08
2022-10-01T18:14:11.563Z,78.82
2022-10-01T18:16:42.432Z,79.20
2022-10-01T18:22:13.341Z,78.74
2022-10-01T18:24:45.099Z,79.11
2022-10-01T18:27:16.099Z,78.48
2022-10-01T18:29:46.888Z,78.06
2022-10-01T18:32:27.437Z,78.49
2022-10-01T18:35:00.998Z,78.16
2022-10-01T18:37:53.790Z,78.10
2022-10-01T18:40:24.622Z,78.50
2022-10-01T18:43:28.785Z,77.93
2022-10-01T18:46:09.410Z,78.29
2022-10-01T18:49:23.942Z,78.30
2022-10-01T18:52:21.672Z,78.20
2022-10-01T18:55:21.299Z,78.17
2022-10-01T18:58:10.259Z,78.59
2022-10-01T19:00:58.337Z,78.42
2022-10-01T19:03:36.588Z,78.32
2022-10-01T19:06:34.427Z,78.42
2022-10-01T19:09:26.188Z,78.28
2022-10-01T19:12:03.732Z,78.50
2022-10-01T19:14:36.722Z,78.43
2022-10-01T19:17:43.673Z,78.50
2022-10-01T19:20:19.407Z,78.41
2022-10-01T19:23:27.254Z,78.56
2022-10-01T19:26:07.344Z,78.44
2022-10-01T19:28:51.659Z,78.70
2022-10-01T19:31:25.380Z,78.40
2022-10-01T19:34:09.223Z,78.31
2022-10-01T19:36:48.453Z,78.13
2022-10-01T19:39:29.325Z,78.58
2022-10-01T19:42:14.016Z,78.57
2022-10-01T19:44:56.417Z,78.61
2022-10-01T19:47:27.348Z,78.30
2022-10-01T19:50:02.068Z,78.72
2022-10-01T19:52:40.681Z,78.84
2022-10-01T19:55:19.562Z,78.62
2022-10-01T19:57:50.836Z,78.39
2022-10-01T20:00:25.908Z,78.69
2022-10-01T20:03:19.850Z,78.95
2022-10-01T20:06:36.558Z,78.62
2022-10-01T20:09:34.761Z,78.98
2022-10-01T20:12:28.698Z,78.77
2022-10-01T20:15:11.273Z,78.90
2022-10-01T20:18:15.779Z,79.08
2022-10-01T20:20:53.570Z,79.16
2022-10-01T20:23:46.723Z,78.79
2022-10-01T20:26:32.761Z,79.19
2022-10-01T20:29:12.144Z,78.97
2022-10-01T20:31:57.435Z,79.20
2022-10-01T20:34:39.446Z,79.24
2022-10-01T20:37:24.660Z,79.22
2022-10-01T20:40:04.424Z,79.25
2022-10-01T20:42:41.571Z,79.45
2022-10-01T20:45:23.839Z,79.27
2022-10-01T20:48:03.248Z,79.28
2022-10-01T20:50:35.032Z,79.58
2022-10-01T20:53:46.656Z,79.79
2022-10-01T20:56:19.703Z,79.63
2022-10-01T20:59:00.153Z,79.81
2022-10-01T21:01:33.342Z,79.67
2022-10-01T21:04:20.530Z,79.93
2022-10-01T21:06:57.725Z,80.05
2022-10-01T21:09:43.859Z,79.90
2022-10-01T21:12:32.935Z,79.77
2022-10-01T21:15:06.204Z,79.90
2022-10-01T21:17:42.809Z,79.71
2022-10-01T21:20:49.215Z,79.84
2022-10-01T21:23:36.498Z,79.75
2022-10-01T21:26:28.095Z,79.84
2022-10-01T21:29:19.326Z,80.00
2022-10-01T21:32:19.833Z,80.06
2022-10-01T21:35:02.058Z,80.10
2022-10-01T21:37:45.683Z,80.30
2022-10-01T21:40:30.898Z,79.89
2022-10-01T21:43:27.192Z,80.01
2022-10-01T21:46:12.668Z,80.27
2022-10-01T21:49:02.447Z,80.40
2022-10-01T21:52:12.948Z,80.21
2022-10-01T21:55:24.131Z,80.46
2022-10-01T21:58:18.832Z,80.20
2022-10-01T22:01:15.932Z,80.36
2022-10-01T22:03:57.928Z,80.52
2022-10-01T22:06:50.251Z,80.50
2022-10-01T22:09:33.941Z,80.17
2022-10-01T22:12:08.171Z,80.40
2022-10-01T22:14:38.857Z,80.50
2022-10-01T22:17:21.870Z,80.43
2022-10-01T22:19:55.262Z,80.37
2022-10-01T22:22:38.384Z,80.44
2022-10-01T22:25:11.577Z,80.74
2022-10-01T22:27:56.636Z,80.54
2022-10-01T22:30:36.254Z,80.71
2022-10-01T22:33:34.022Z,80.91
2022-10-01T22:36:12.607Z,80.76
2022-10-01T22:38:56.572Z,80.81
2022-10-01T22:41:49.740Z,81.25
2022-10-01T22:44:23.359Z,80.86
2022-10-01T22:47:27.722Z,80.97
2022-10-01T22:50:28.899Z,80.80
2022-10-01T22:53:09.893Z,80.91
2022-10-01T22:55:47.638Z,80.81
2022-10-01T22:58:32.397Z,80.80
2022-10-01T23:01:21.625Z,81.00
2022-10-01T23:03:52.573Z,80.84
2022-10-01T23:06:39.244Z,81.09
2022-10-01T23:09:21.161Z,81.02
2022-10-01T23:12:24.465Z,80.87
2022-10-01T23:15:17.153Z,80.85
2022-10-01T23:18:26.698Z,80.78
2022-10-01T23:21:23.236Z,80.85
2022-10-01T23:24:09.876Z,81.16
2022-10-01T23:27:05.573Z,80.75
2022-10-01T23:29:38.692Z,80.97
2022-10-01T23:32:17.677Z,80.81
2022-10-01T23:35:15.487Z,80.95
2022-10-01T23:38:17.614Z,81.04
2022-10-01T23:40:54.522Z,81.10
2022-10-01T23:43:34.304Z,80.97
2022-10-01T23:46:06.860Z,80.75
2022-10-01T23:48:53.844Z,80.28
2022-10-01T23:51:35.600Z,80.46
2022-10-01T23:54:15.387Z,80.27
2022-10-01T23:57:12.551Z,80.47
2022-10-01T23:59:58.059Z,80.58
